Time;durP1;ratioP1;P1;durP2;ratioP2;P2;SDS_P1;SDS_P2;PMS_P1;PMS_P2;Temp;Humidity;BMP_temperature;BMP_pressure;BME280_temperature;BME280_humidity;BME280_pressure;Samples;Min_cycle;Max_cycle;Signal;HPM_P1;HPM_P2
2022/12/10 00:01:42;;;;;;;;;;;24.70;81.80;;;;;;5070209;28;19925;-77
2022/12/10 00:04:10;;;;;;;;;;;24.80;82.10;;;;;;5072862;28;20325;-80
2022/12/10 00:06:37;;;;;;;;;;;24.90;81.70;;;;;;5076739;28;20082;-81
2022/12/10 00:09:05;;;;;;;;;;;24.80;80.20;;;;;;5081366;28;20683;-77
2022/12/10 00:11:33;;;;;;;;;;;24.60;80.20;;;;;;5076235;28;20929;-74
2022/12/10 00:14:00;;;;;;;;;;;24.50;80.70;;;;;;5089796;28;20370;-77
2022/12/10 00:16:28;;;;;;;;;;;24.30;80.80;;;;;;5076670;28;19918;-77
2022/12/10 00:18:54;;;;;;;;;;;24.30;81.60;;;;;;5091073;28;20357;-77
2022/12/10 00:21:22;;;;;;;;;;;24.50;81.80;;;;;;5081921;28;20011;-78
2022/12/10 00:23:49;;;;;;;;;;;25.30;82.60;;;;;;5094526;28;19912;-76
2022/12/10 00:26:18;;;;;;;;;;;26.10;80.80;;;;;;5093069;28;20605;-73
2022/12/10 00:28:45;;;;;;;;;;;26.90;78.20;;;;;;5075778;28;19916;-75
2022/12/10 00:31:16;;;;;;;;;;;27.40;78.10;;;;;;5087163;28;19919;-79
2022/12/10 00:33:43;;;;;;;;;;;27.80;77.10;;;;;;5091286;28;19912;-77
2022/12/10 00:36:12;;;;;;;;;;;28.30;75.40;;;;;;5079984;28;19931;-76
2022/12/10 00:38:39;;;;;;;;;;;28.20;76.10;;;;;;5079946;28;19958;-77
2022/12/10 00:41:06;;;;;;;;;;;27.50;75.10;;;;;;5074257;28;19920;-76
2022/12/10 00:43:34;;;;;;;;;;;27.10;74.70;;;;;;5092598;28;20006;-75
2022/12/10 00:46:01;;;;;;;;;;;26.40;75.80;;;;;;5081736;28;20354;-77
2022/12/10 00:48:28;;;;;;;;;;;25.70;76.40;;;;;;5075200;28;19916;-76
2022/12/10 00:51:05;;;;;;;;;;;25.20;77.10;;;;;;5077532;28;19917;-76
2022/12/10 00:53:33;;;;;;;;;;;24.70;78.90;;;;;;5088550;28;19973;-77
2022/12/10 00:56:00;;;;;;;;;;;24.60;79.40;;;;;;5090500;28;19969;-75
2022/12/10 00:58:28;;;;;;;;;;;24.70;79.90;;;;;;5089233;28;19916;-77
2022/12/10 01:00:54;;;;;;;;;;;24.60;79.40;;;;;;5088115;28;19947;-76
2022/12/10 01:03:21;;;;;;;;;;;24.40;79.50;;;;;;5075544;28;19944;-76
2022/12/10 01:05:48;;;;;;;;;;;24.20;79.20;;;;;;5081308;28;19912;-78
2022/12/10 01:08:14;;;;;;;;;;;23.90;79.90;;;;;;5078447;28;19942;-75
2022/12/10 01:10:41;;;;;;;;;;;23.70;80.20;;;;;;5075739;28;19919;-76
2022/12/10 01:13:08;;;;;;;;;;;23.70;81.30;;;;;;5085311;28;19916;-77
2022/12/10 01:15:37;;;;;;;;;;;23.80;80.90;;;;;;5087827;28;19916;-77
2022/12/10 01:18:04;;;;;;;;;;;23.80;80.50;;;;;;5081475;28;19920;-76
2022/12/10 01:20:34;;;;;;;;;;;23.80;79.50;;;;;;5079386;28;19943;-78
2022/12/10 01:23:01;;;;;;;;;;;23.80;80.50;;;;;;5088545;28;19919;-79
2022/12/10 01:25:28;;;;;;;;;;;24.20;80.40;;;;;;5080286;28;19951;-79
2022/12/10 01:27:54;;;;;;;;;;;25.00;79.00;;;;;;5083206;28;19920;-81
2022/12/10 01:30:21;;;;;;;;;;;25.40;79.30;;;;;;5077107;28;19912;-81
2022/12/10 01:32:48;;;;;;;;;;;25.70;79.00;;;;;;5073593;28;19951;-79
2022/12/10 01:35:14;;;;;;;;;;;26.20;78.20;;;;;;5082963;28;19970;-75
2022/12/10 01:37:41;;;;;;;;;;;26.50;77.70;;;;;;5090681;28;20332;-72
2022/12/10 01:40:08;;;;;;;;;;;26.50;77.80;;;;;;5080572;28;19912;-77
2022/12/10 01:42:35;;;;;;;;;;;26.50;75.90;;;;;;5086324;28;19916;-75
2022/12/10 01:45:04;;;;;;;;;;;26.20;76.80;;;;;;5090664;28;19924;-75
2022/12/10 01:47:31;;;;;;;;;;;26.20;77.30;;;;;;5087204;28;20294;-76
2022/12/10 01:49:58;;;;;;;;;;;26.20;77.70;;;;;;5086390;28;19912;-75
2022/12/10 01:52:25;;;;;;;;;;;26.30;77.70;;;;;;5092472;28;19943;-74
2022/12/10 01:54:52;;;;;;;;;;;26.30;77.10;;;;;;5086981;28;20386;-73
2022/12/10 01:57:23;;;;;;;;;;;26.20;77.20;;;;;;5072766;28;19919;-77
2022/12/10 01:59:52;;;;;;;;;;;26.00;77.40;;;;;;5073151;28;20062;-77
2022/12/10 02:02:22;;;;;;;;;;;25.90;76.80;;;;;;5080124;28;20015;-76
2022/12/10 02:04:54;;;;;;;;;;;25.70;77.20;;;;;;5073893;28;19916;-75
2022/12/10 02:07:28;;;;;;;;;;;26.20;80.20;;;;;;5080299;28;19943;-75
2022/12/10 02:10:05;;;;;;;;;;;26.80;77.30;;;;;;5076836;28;19928;-75
2022/12/10 02:12:38;;;;;;;;;;;27.50;77.50;;;;;;5074728;28;20365;-74
2022/12/10 02:15:05;;;;;;;;;;;27.80;78.50;;;;;;5076336;28;19923;-73
2022/12/10 02:17:39;;;;;;;;;;;27.60;75.00;;;;;;5086010;28;19963;-76
2022/12/10 02:20:08;;;;;;;;;;;27.30;75.80;;;;;;5079378;28;20283;-76
2022/12/10 02:22:41;;;;;;;;;;;27.00;75.40;;;;;;5077257;28;19912;-78
2022/12/10 02:25:09;;;;;;;;;;;26.50;75.80;;;;;;5090261;28;19957;-78
2022/12/10 02:27:46;;;;;;;;;;;26.10;76.90;;;;;;5088457;28;19919;-77
2022/12/10 02:30:13;;;;;;;;;;;25.80;77.30;;;;;;5085486;28;19974;-78
2022/12/10 02:32:41;;;;;;;;;;;25.50;78.40;;;;;;5087820;28;19912;-79
2022/12/10 02:35:12;;;;;;;;;;;25.20;78.10;;;;;;5092073;28;19920;-79
2022/12/10 02:37:41;;;;;;;;;;;25.00;78.40;;;;;;5083562;28;19916;-78
2022/12/10 02:40:11;;;;;;;;;;;24.90;78.70;;;;;;5070815;28;20371;-76
2022/12/10 02:42:39;;;;;;;;;;;24.80;79.70;;;;;;5072328;28;19981;-82
2022/12/10 02:45:07;;;;;;;;;;;24.60;80.60;;;;;;5075766;28;19916;-82
2022/12/10 02:47:34;;;;;;;;;;;24.60;80.90;;;;;;5090057;28;19932;-83
2022/12/10 02:50:01;;;;;;;;;;;24.60;80.80;;;;;;5086692;28;20371;-82
2022/12/10 02:52:28;;;;;;;;;;;24.50;81.10;;;;;;5072678;28;19931;-82
2022/12/10 02:54:54;;;;;;;;;;;24.30;81.50;;;;;;5075857;28;19924;-81
2022/12/10 02:57:24;;;;;;;;;;;24.10;82.00;;;;;;5073884;28;20436;-79
2022/12/10 03:00:00;;;;;;;;;;;24.10;81.60;;;;;;5087454;28;20428;-80
2022/12/10 03:02:39;;;;;;;;;;;23.90;81.90;;;;;;5079628;28;20259;-81
2022/12/10 03:05:06;;;;;;;;;;;24.00;82.50;;;;;;5085592;28;19934;-82
2022/12/10 03:07:46;;;;;;;;;;;24.10;82.70;;;;;;5072398;28;19916;-80
2022/12/10 03:10:36;;;;;;;;;;;24.20;82.50;;;;;;5088890;28;19923;-80
2022/12/10 03:13:06;;;;;;;;;;;24.20;82.10;;;;;;5074379;28;19919;-80
2022/12/10 03:15:34;;;;;;;;;;;24.40;81.80;;;;;;5087806;28;19916;-81
2022/12/10 03:18:05;;;;;;;;;;;24.80;81.80;;;;;;5076274;28;19919;-81
2022/12/10 03:20:33;;;;;;;;;;;25.00;80.60;;;;;;5090761;28;19959;-81
2022/12/10 03:23:02;;;;;;;;;;;25.00;80.80;;;;;;5091127;28;20337;-73
2022/12/10 03:25:30;;;;;;;;;;;25.10;80.70;;;;;;5090555;28;19912;-80
2022/12/10 03:27:57;;;;;;;;;;;25.40;79.40;;;;;;5081972;28;20624;-79
2022/12/10 03:30:24;;;;;;;;;;;25.30;79.70;;;;;;5090444;28;20451;-79
2022/12/10 03:32:51;;;;;;;;;;;25.30;80.40;;;;;;5091733;28;19916;-79
2022/12/10 03:35:19;;;;;;;;;;;25.40;80.40;;;;;;5082391;28;19920;-82
2022/12/10 03:37:46;;;;;;;;;;;25.80;80.20;;;;;;5082411;28;20390;-82
2022/12/10 03:40:13;;;;;;;;;;;26.60;78.30;;;;;;5087003;28;19920;-80
2022/12/10 03:42:40;;;;;;;;;;;27.10;77.70;;;;;;5086413;28;20277;-81
2022/12/10 03:45:07;;;;;;;;;;;26.90;76.60;;;;;;5095899;28;19995;-82
2022/12/10 03:47:34;;;;;;;;;;;26.60;77.60;;;;;;5092047;28;19912;-82
2022/12/10 03:50:00;;;;;;;;;;;26.30;77.80;;;;;;5084857;28;19927;-82
2022/12/10 03:52:27;;;;;;;;;;;26.00;78.20;;;;;;5095170;28;20362;-82
2022/12/10 03:54:54;;;;;;;;;;;25.80;78.50;;;;;;5100917;28;19916;-83
2022/12/10 03:57:21;;;;;;;;;;;26.00;78.80;;;;;;5099540;28;19934;-85
2022/12/10 03:59:47;;;;;;;;;;;26.40;79.80;;;;;;5096925;28;20282;-82
2022/12/10 04:02:14;;;;;;;;;;;26.50;78.00;;;;;;5098147;28;19924;-81
2022/12/10 04:04:41;;;;;;;;;;;26.30;77.80;;;;;;5096180;28;19920;-81
2022/12/10 04:07:08;;;;;;;;;;;26.10;79.10;;;;;;5079933;28;19916;-81
2022/12/10 04:09:34;;;;;;;;;;;25.80;79.10;;;;;;5088841;28;20035;-83
2022/12/10 04:12:01;;;;;;;;;;;25.70;79.10;;;;;;5080139;28;19913;-83
2022/12/10 04:17:13;;;;;;;;;;;25.90;79.50;;;;;;5086062;28;19923;-82
2022/12/10 04:19:40;;;;;;;;;;;26.30;79.40;;;;;;5092731;28;19915;-81
2022/12/10 04:26:51;;;;;;;;;;;26.90;77.70;;;;;;5097103;28;20281;-77
2022/12/10 04:27:53;;;;;;;;;;;27.00;76.60;;;;;;5097459;28;19913;-82
2022/12/10 04:30:19;;;;;;;;;;;26.90;77.60;;;;;;5095532;28;19919;-83
2022/12/10 04:32:46;;;;;;;;;;;26.70;77.30;;;;;;5096167;28;19912;-76
2022/12/10 04:35:13;;;;;;;;;;;26.50;77.40;;;;;;5096990;28;20360;-82
2022/12/10 04:37:40;;;;;;;;;;;26.30;76.90;;;;;;5085955;28;20050;-79
2022/12/10 04:40:07;;;;;;;;;;;26.00;78.00;;;;;;5083065;28;19951;-78
2022/12/10 04:42:33;;;;;;;;;;;25.80;78.10;;;;;;5097895;28;19920;-81
2022/12/10 04:45:00;;;;;;;;;;;26.00;77.70;;;;;;5099464;28;19916;-82
2022/12/10 04:47:27;;;;;;;;;;;26.10;77.00;;;;;;5091956;28;20008;-83
2022/12/10 04:49:55;;;;;;;;;;;26.20;77.50;;;;;;5086082;28;20385;-80
2022/12/10 04:52:21;;;;;;;;;;;26.40;77.30;;;;;;5090321;28;19912;-81
2022/12/10 04:54:48;;;;;;;;;;;26.60;76.70;;;;;;5079501;28;19912;-81
2022/12/10 04:57:15;;;;;;;;;;;26.60;77.70;;;;;;5094345;28;20374;-83
2022/12/10 04:59:42;;;;;;;;;;;26.80;77.90;;;;;;5092644;28;19924;-81
2022/12/10 05:02:08;;;;;;;;;;;26.90;79.10;;;;;;5087167;28;19927;-83
2022/12/10 05:04:35;;;;;;;;;;;27.10;78.20;;;;;;5076031;28;19958;-83
2022/12/10 05:07:02;;;;;;;;;;;27.10;77.90;;;;;;5077350;28;19966;-84
2022/12/10 05:09:29;;;;;;;;;;;26.80;78.80;;;;;;5081103;28;19908;-81
2022/12/10 05:11:55;;;;;;;;;;;26.60;78.60;;;;;;5081321;28;19916;-83
2022/12/10 05:14:22;;;;;;;;;;;26.60;78.70;;;;;;5094165;28;20330;-81
2022/12/10 05:16:50;;;;;;;;;;;26.50;78.50;;;;;;5079027;28;19913;-84
2022/12/10 05:19:19;;;;;;;;;;;26.50;79.00;;;;;;5075625;28;19913;-85
2022/12/10 05:24:30;;;;;;;;;;;26.30;78.70;;;;;;5094246;28;20007;-82
2022/12/10 05:26:57;;;;;;;;;;;25.80;79.90;;;;;;5089086;28;19956;-79
2022/12/10 05:29:24;;;;;;;;;;;25.30;80.00;;;;;;5083746;28;19920;-83
2022/12/10 05:31:50;;;;;;;;;;;24.80;81.10;;;;;;5085887;28;19920;-82
2022/12/10 05:34:17;;;;;;;;;;;24.70;81.50;;;;;;5075435;28;19916;-79
2022/12/10 05:36:44;;;;;;;;;;;24.70;81.90;;;;;;5089167;28;19926;-81
2022/12/10 05:39:11;;;;;;;;;;;24.60;81.80;;;;;;5080027;28;19912;-81
2022/12/10 05:41:38;;;;;;;;;;;24.50;82.40;;;;;;5085352;28;19971;-84
2022/12/10 05:44:06;;;;;;;;;;;24.50;82.30;;;;;;5092196;28;19919;-82
2022/12/10 05:46:33;;;;;;;;;;;24.40;82.60;;;;;;5089925;28;19912;-81
2022/12/10 05:49:01;;;;;;;;;;;24.50;82.90;;;;;;5079214;28;19916;-82
2022/12/10 05:51:29;;;;;;;;;;;24.70;82.70;;;;;;5083528;28;19919;-83
2022/12/10 05:53:57;;;;;;;;;;;24.90;83.30;;;;;;5092359;28;20256;-81
2022/12/10 05:56:24;;;;;;;;;;;25.00;82.90;;;;;;5087355;28;20036;-81
2022/12/10 05:58:52;;;;;;;;;;;24.90;83.40;;;;;;5091261;28;19912;-81
2022/12/10 06:01:20;;;;;;;;;;;24.90;83.60;;;;;;5087965;28;20252;-80
2022/12/10 06:03:47;;;;;;;;;;;25.00;83.40;;;;;;5086932;28;19948;-82
2022/12/10 06:06:14;;;;;;;;;;;24.80;83.50;;;;;;5087761;28;20176;-78
2022/12/10 06:08:41;;;;;;;;;;;24.60;83.70;;;;;;5092106;28;19991;-81
2022/12/10 06:11:09;;;;;;;;;;;24.40;84.10;;;;;;5077849;28;19912;-80
2022/12/10 06:13:36;;;;;;;;;;;24.20;84.10;;;;;;5072379;28;19955;-78
2022/12/10 06:16:10;;;;;;;;;;;24.00;84.80;;;;;;5072909;28;19920;-81
2022/12/10 06:18:36;;;;;;;;;;;23.80;85.20;;;;;;5075806;28;19913;-81
2022/12/10 06:21:04;;;;;;;;;;;23.70;86.10;;;;;;5073766;28;19936;-81
2022/12/10 06:23:30;;;;;;;;;;;23.70;85.80;;;;;;5082922;28;19926;-83
2022/12/10 06:25:57;;;;;;;;;;;23.80;86.20;;;;;;5077123;28;19912;-81
2022/12/10 06:28:24;;;;;;;;;;;23.70;86.20;;;;;;5091553;28;19962;-72
2022/12/10 06:30:50;;;;;;;;;;;23.60;86.10;;;;;;5089454;28;20441;-80
2022/12/10 06:33:17;;;;;;;;;;;23.60;86.50;;;;;;5090946;28;19912;-79
2022/12/10 06:35:44;;;;;;;;;;;23.40;86.60;;;;;;5084984;28;19973;-81
2022/12/10 06:38:11;;;;;;;;;;;23.40;86.70;;;;;;5084377;28;19916;-74
2022/12/10 06:40:40;;;;;;;;;;;23.30;86.70;;;;;;5084329;28;20026;-78
2022/12/10 06:43:06;;;;;;;;;;;23.50;87.30;;;;;;5078320;28;19916;-77
2022/12/10 06:45:33;;;;;;;;;;;23.70;86.60;;;;;;5074496;28;19928;-76
2022/12/10 06:48:00;;;;;;;;;;;23.70;86.00;;;;;;5086046;28;19912;-72
2022/12/10 06:50:27;;;;;;;;;;;23.70;86.20;;;;;;5090585;28;19923;-77
2022/12/10 06:52:53;;;;;;;;;;;23.70;86.40;;;;;;5082594;28;19911;-75
2022/12/10 06:55:20;;;;;;;;;;;23.60;86.30;;;;;;5084748;28;19919;-77
2022/12/10 06:57:47;;;;;;;;;;;23.50;86.50;;;;;;5080703;28;20410;-72
2022/12/10 07:00:14;;;;;;;;;;;23.40;86.40;;;;;;5081380;28;20017;-72
2022/12/10 07:02:40;;;;;;;;;;;23.30;86.70;;;;;;5091504;28;19927;-78
2022/12/10 07:05:07;;;;;;;;;;;23.00;87.10;;;;;;5089015;28;19985;-77
2022/12/10 07:07:35;;;;;;;;;;;22.70;87.90;;;;;;5091398;28;19912;-73
2022/12/10 07:10:02;;;;;;;;;;;22.50;88.40;;;;;;5076491;28;20394;-79
2022/12/10 07:12:28;;;;;;;;;;;22.50;88.70;;;;;;5072181;28;20286;-74
2022/12/10 07:14:55;;;;;;;;;;;22.50;89.00;;;;;;5076065;28;19923;-74
2022/12/10 07:17:22;;;;;;;;;;;22.40;89.20;;;;;;5088787;28;19966;-72
2022/12/10 07:19:48;;;;;;;;;;;22.40;89.20;;;;;;5089505;28;19916;-77
2022/12/10 07:22:15;;;;;;;;;;;22.40;89.40;;;;;;5089784;28;20378;-76
2022/12/10 07:24:42;;;;;;;;;;;22.50;89.50;;;;;;5081642;28;19951;-77
2022/12/10 07:27:09;;;;;;;;;;;22.50;89.60;;;;;;5082821;28;19916;-75
2022/12/10 07:29:35;;;;;;;;;;;22.50;89.30;;;;;;5086752;28;19969;-75
2022/12/10 07:32:02;;;;;;;;;;;22.40;89.50;;;;;;5085236;28;19918;-76
2022/12/10 07:34:29;;;;;;;;;;;22.20;90.00;;;;;;5075025;28;20447;-78
2022/12/10 07:36:56;;;;;;;;;;;22.10;90.10;;;;;;5078412;28;19927;-74
2022/12/10 07:39:22;;;;;;;;;;;22.00;90.20;;;;;;5085418;28;19934;-74
2022/12/10 07:41:53;;;;;;;;;;;21.90;90.30;;;;;;5074134;28;20374;-70
2022/12/10 07:44:24;;;;;;;;;;;21.90;90.40;;;;;;5084218;28;19923;-72
2022/12/10 07:46:52;;;;;;;;;;;21.70;90.50;;;;;;5073965;28;19912;-73
2022/12/10 07:49:18;;;;;;;;;;;21.60;90.60;;;;;;5074253;28;20351;-76
2022/12/10 07:51:46;;;;;;;;;;;21.60;90.80;;;;;;5090081;28;20393;-71
2022/12/10 07:54:13;;;;;;;;;;;21.40;90.80;;;;;;5091841;28;19912;-73
2022/12/10 07:56:40;;;;;;;;;;;21.40;91.00;;;;;;5072375;28;19920;-77
2022/12/10 07:59:06;;;;;;;;;;;21.30;91.10;;;;;;5080755;28;19919;-77
2022/12/10 08:01:33;;;;;;;;;;;21.20;91.20;;;;;;5077975;28;19920;-72
2022/12/10 08:04:00;;;;;;;;;;;21.20;91.30;;;;;;5079066;28;20270;-71
2022/12/10 08:06:27;;;;;;;;;;;21.10;91.40;;;;;;5086870;28;19920;-74
2022/12/10 08:08:54;;;;;;;;;;;21.10;91.40;;;;;;5089664;28;20575;-74
2022/12/10 08:11:22;;;;;;;;;;;21.10;91.50;;;;;;5071567;28;19916;-71
2022/12/10 08:13:49;;;;;;;;;;;21.10;91.60;;;;;;5075492;28;19912;-72
2022/12/10 08:16:20;;;;;;;;;;;21.10;91.70;;;;;;5087828;28;20004;-74
2022/12/10 08:18:46;;;;;;;;;;;21.00;91.70;;;;;;5070894;28;19920;-73
2022/12/10 08:21:14;;;;;;;;;;;20.90;91.70;;;;;;5086763;28;19920;-74
2022/12/10 08:23:41;;;;;;;;;;;20.80;91.90;;;;;;5073364;28;19968;-72
2022/12/10 08:26:10;;;;;;;;;;;20.70;92.00;;;;;;5088310;28;20346;-71
2022/12/10 08:28:36;;;;;;;;;;;20.60;92.00;;;;;;5090735;28;19923;-70
2022/12/10 08:31:04;;;;;;;;;;;20.50;92.20;;;;;;5086647;28;19912;-75
2022/12/10 08:33:34;;;;;;;;;;;20.50;92.30;;;;;;5075533;28;19908;-71
2022/12/10 08:36:01;;;;;;;;;;;20.50;92.40;;;;;;5084945;28;19920;-70
2022/12/10 08:38:28;;;;;;;;;;;20.30;92.50;;;;;;5093054;28;19916;-69
2022/12/10 08:40:54;;;;;;;;;;;20.30;92.60;;;;;;5092050;28;19998;-71
2022/12/10 08:43:21;;;;;;;;;;;20.30;92.80;;;;;;5085832;28;19913;-74
2022/12/10 08:45:48;;;;;;;;;;;20.30;92.60;;;;;;5086617;28;19931;-72
2022/12/10 08:48:14;;;;;;;;;;;20.30;92.70;;;;;;5085353;28;19920;-70
2022/12/10 08:50:41;;;;;;;;;;;20.20;92.60;;;;;;5088848;28;21464;-72
2022/12/10 08:53:08;;;;;;;;;;;20.10;92.70;;;;;;5088484;28;20423;-72
2022/12/10 08:55:38;;;;;;;;;;;20.10;92.80;;;;;;5081251;28;19920;-71
2022/12/10 08:58:05;;;;;;;;;;;20.00;92.80;;;;;;5082394;28;20109;-79
2022/12/10 09:00:32;;;;;;;;;;;19.90;92.90;;;;;;5077337;28;20350;-78
2022/12/10 09:02:58;;;;;;;;;;;19.90;93.10;;;;;;5092458;28;20290;-77
2022/12/10 09:05:25;;;;;;;;;;;19.80;93.20;;;;;;5074186;28;19917;-78
2022/12/10 09:07:52;;;;;;;;;;;19.80;93.40;;;;;;5081552;28;20390;-77
2022/12/10 09:10:19;;;;;;;;;;;19.70;93.70;;;;;;5079115;28;19926;-76
2022/12/10 09:12:45;;;;;;;;;;;19.70;93.60;;;;;;5090615;28;19912;-78
2022/12/10 09:15:12;;;;;;;;;;;19.60;93.70;;;;;;5085479;28;19970;-80
2022/12/10 09:17:39;;;;;;;;;;;19.60;93.90;;;;;;5082257;28;20234;-78
2022/12/10 09:20:06;;;;;;;;;;;19.50;93.90;;;;;;5081290;28;19916;-79
2022/12/10 09:22:36;;;;;;;;;;;19.40;94.00;;;;;;5082248;28;19924;-77
2022/12/10 09:25:06;;;;;;;;;;;19.40;94.10;;;;;;5076590;28;20416;-81
2022/12/10 09:27:33;;;;;;;;;;;19.30;94.20;;;;;;5086357;28;19934;-77
2022/12/10 09:30:00;;;;;;;;;;;19.30;94.10;;;;;;5092309;28;19916;-75
2022/12/10 09:32:27;;;;;;;;;;;19.30;94.20;;;;;;5086571;28;19912;-75
2022/12/10 09:34:54;;;;;;;;;;;19.20;94.30;;;;;;5090744;28;19947;-75
2022/12/10 09:37:20;;;;;;;;;;;19.20;94.30;;;;;;5090189;28;19919;-76
2022/12/10 09:39:47;;;;;;;;;;;19.20;94.30;;;;;;5087070;28;19912;-76
2022/12/10 09:42:14;;;;;;;;;;;19.20;94.40;;;;;;5084472;28;19927;-74
2022/12/10 09:44:51;;;;;;;;;;;19.20;94.40;;;;;;5087785;28;20022;-76
2022/12/10 09:47:17;;;;;;;;;;;19.20;94.40;;;;;;5087045;28;19934;-78
2022/12/10 09:49:53;;;;;;;;;;;19.20;94.40;;;;;;5084446;28;19912;-74
2022/12/10 09:52:22;;;;;;;;;;;19.20;94.50;;;;;;5087802;28;20375;-76
2022/12/10 09:54:57;;;;;;;;;;;19.20;94.30;;;;;;5082731;28;19919;-77
2022/12/10 09:57:31;;;;;;;;;;;19.20;94.50;;;;;;5091367;28;19958;-76
2022/12/10 10:00:00;;;;;;;;;;;19.20;94.60;;;;;;5073354;28;19912;-77
2022/12/10 10:02:31;;;;;;;;;;;19.10;94.60;;;;;;5072608;28;19976;-75
2022/12/10 10:05:10;;;;;;;;;;;19.10;94.70;;;;;;5073743;28;19913;-73
2022/12/10 10:07:45;;;;;;;;;;;19.00;94.90;;;;;;5081571;28;19916;-77
2022/12/10 10:10:20;;;;;;;;;;;19.00;94.80;;;;;;5076332;28;20517;-75
2022/12/10 10:12:48;;;;;;;;;;;19.00;95.00;;;;;;5078581;28;19985;-75
2022/12/10 10:15:16;;;;;;;;;;;18.90;95.10;;;;;;5088381;28;20481;-75
2022/12/10 10:17:46;;;;;;;;;;;18.80;95.10;;;;;;5074244;28;20354;-76
2022/12/10 10:20:14;;;;;;;;;;;18.80;95.20;;;;;;5079315;28;19923;-76
2022/12/10 10:22:41;;;;;;;;;;;18.80;95.20;;;;;;5079110;28;20011;-72
2022/12/10 10:25:15;;;;;;;;;;;18.70;95.40;;;;;;5079582;28;19916;-77
2022/12/10 10:27:42;;;;;;;;;;;18.70;95.60;;;;;;5075689;28;19916;-76
2022/12/10 10:30:19;;;;;;;;;;;18.70;95.70;;;;;;5074019;28;19916;-76
2022/12/10 10:32:49;;;;;;;;;;;18.70;95.50;;;;;;5085656;28;19952;-77
2022/12/10 10:35:23;;;;;;;;;;;18.60;95.60;;;;;;5078773;28;20333;-76
2022/12/10 10:37:50;;;;;;;;;;;18.60;95.70;;;;;;5073681;28;19961;-78
2022/12/10 10:40:28;;;;;;;;;;;18.60;95.70;;;;;;5075183;28;19920;-78
2022/12/10 10:42:57;;;;;;;;;;;18.60;95.70;;;;;;5079839;28;19993;-76
2022/12/10 10:45:40;;;;;;;;;;;18.60;95.90;;;;;;5084542;28;20081;-79
2022/12/10 10:48:12;;;;;;;;;;;18.60;95.90;;;;;;5084832;28;19919;-76
2022/12/10 10:50:40;;;;;;;;;;;18.50;95.90;;;;;;5078602;28;19912;-77
2022/12/10 10:53:22;;;;;;;;;;;18.50;96.00;;;;;;5076875;28;19924;-75
2022/12/10 10:55:48;;;;;;;;;;;18.40;96.30;;;;;;5086544;28;20021;-76
2022/12/10 10:58:21;;;;;;;;;;;18.30;96.90;;;;;;5088059;28;19963;-76
2022/12/10 11:00:56;;;;;;;;;;;18.30;96.70;;;;;;5087635;28;20377;-77
2022/12/10 11:03:22;;;;;;;;;;;18.30;96.60;;;;;;5085927;28;20502;-79
2022/12/10 11:05:49;;;;;;;;;;;18.20;96.80;;;;;;5081558;28;19913;-78
2022/12/10 11:08:20;;;;;;;;;;;18.20;96.80;;;;;;5085346;28;19921;-79
2022/12/10 11:10:51;;;;;;;;;;;18.10;97.00;;;;;;5077140;28;19959;-74
2022/12/10 11:13:25;;;;;;;;;;;18.10;97.10;;;;;;5074771;28;19913;-75
2022/12/10 11:15:57;;;;;;;;;;;18.10;97.20;;;;;;5076010;28;20014;-75
2022/12/10 11:18:31;;;;;;;;;;;18.00;97.60;;;;;;5077584;28;19955;-75
2022/12/10 11:21:16;;;;;;;;;;;18.00;97.60;;;;;;5079255;28;19967;-78
2022/12/10 11:23:47;;;;;;;;;;;17.90;97.70;;;;;;5081310;28;20030;-78
2022/12/10 11:26:29;;;;;;;;;;;17.80;97.80;;;;;;5081967;28;20302;-78
2022/12/10 11:29:02;;;;;;;;;;;17.80;97.90;;;;;;5073437;28;20397;-76
2022/12/10 11:31:38;;;;;;;;;;;17.80;98.00;;;;;;5084334;28;19924;-78
2022/12/10 11:34:14;;;;;;;;;;;17.70;98.10;;;;;;5089646;28;19948;-79
2022/12/10 11:36:44;;;;;;;;;;;17.70;98.30;;;;;;5082237;28;19920;-78
2022/12/10 11:39:23;;;;;;;;;;;17.70;98.30;;;;;;5075236;28;19920;-79
2022/12/10 11:42:03;;;;;;;;;;;17.60;98.50;;;;;;5079144;28;19963;-78
2022/12/10 11:45:08;;;;;;;;;;;17.50;98.80;;;;;;5084392;28;19919;-76
2022/12/10 11:47:47;;;;;;;;;;;17.50;98.80;;;;;;5063092;28;20395;-78
2022/12/10 11:50:20;;;;;;;;;;;17.40;99.00;;;;;;5060647;28;19960;-78
2022/12/10 11:52:55;;;;;;;;;;;17.30;99.10;;;;;;5069742;28;19958;-76
2022/12/10 11:55:27;;;;;;;;;;;17.30;99.20;;;;;;5083732;28;20356;-75
2022/12/10 11:58:09;;;;;;;;;;;17.30;99.40;;;;;;5084716;28;19962;-77
2022/12/10 12:00:56;;;;;;;;;;;17.20;99.30;;;;;;5087855;28;19926;-77
2022/12/10 12:03:25;;;;;;;;;;;17.20;99.60;;;;;;5083154;28;19918;-74
2022/12/10 12:05:58;;;;;;;;;;;17.20;99.80;;;;;;5085147;28;19974;-75
2022/12/10 12:08:36;;;;;;;;;;;17.10;99.80;;;;;;5077729;28;20325;-77
2022/12/10 12:11:23;;;;;;;;;;;17.10;99.90;;;;;;5079547;28;20351;-79
2022/12/10 12:13:52;;;;;;;;;;;17.00;99.90;;;;;;5088298;28;20446;-77
2022/12/10 12:16:26;;;;;;;;;;;16.90;99.90;;;;;;5085639;28;20423;-74
2022/12/10 12:18:53;;;;;;;;;;;16.90;99.90;;;;;;5090632;28;19912;-76
2022/12/10 12:21:19;;;;;;;;;;;16.80;99.90;;;;;;5092055;28;20029;-76
2022/12/10 12:23:46;;;;;;;;;;;16.80;99.90;;;;;;5093529;28;19912;-77
2022/12/10 12:26:26;;;;;;;;;;;16.80;99.90;;;;;;5087604;28;20731;-76
2022/12/10 12:29:09;;;;;;;;;;;16.80;99.90;;;;;;5094487;28;19912;-78
2022/12/10 12:31:37;;;;;;;;;;;16.80;99.90;;;;;;5077446;28;20263;-80
2022/12/10 12:34:16;;;;;;;;;;;16.70;99.90;;;;;;5095049;28;20307;-77
2022/12/10 12:36:43;;;;;;;;;;;16.70;99.90;;;;;;5084767;28;19939;-77
2022/12/10 12:39:15;;;;;;;;;;;16.70;99.90;;;;;;5077816;28;19912;-83
2022/12/10 12:41:49;;;;;;;;;;;16.60;99.90;;;;;;5084175;28;19927;-86
2022/12/10 12:44:21;;;;;;;;;;;16.60;99.90;;;;;;5093839;28;19920;-79
2022/12/10 12:46:49;;;;;;;;;;;16.60;99.90;;;;;;5086758;28;20416;-80
2022/12/10 12:49:30;;;;;;;;;;;16.60;99.90;;;;;;5092056;28;19922;-77
2022/12/10 12:51:57;;;;;;;;;;;16.60;99.90;;;;;;5082340;28;19916;-74
2022/12/10 12:54:23;;;;;;;;;;;16.50;99.90;;;;;;5077533;28;19916;-77
2022/12/10 12:57:09;;;;;;;;;;;16.50;99.90;;;;;;5086012;28;20006;-78
2022/12/10 12:59:40;;;;;;;;;;;16.50;99.90;;;;;;5082218;28;19916;-77
2022/12/10 13:02:16;;;;;;;;;;;16.50;99.90;;;;;;5083930;28;20066;-78
2022/12/10 13:04:43;;;;;;;;;;;16.40;99.90;;;;;;5076457;28;20252;-76
2022/12/10 13:07:15;;;;;;;;;;;16.40;99.90;;;;;;5079280;28;19955;-75
2022/12/10 13:09:46;;;;;;;;;;;16.30;99.90;;;;;;5085189;28;19956;-76
2022/12/10 13:12:16;;;;;;;;;;;16.30;99.90;;;;;;5086089;28;20384;-72
2022/12/10 13:14:50;;;;;;;;;;;16.30;99.90;;;;;;5089521;28;20710;-74
2022/12/10 13:17:34;;;;;;;;;;;16.20;99.90;;;;;;5088324;28;20263;-74
2022/12/10 13:20:23;;;;;;;;;;;16.20;99.90;;;;;;5092598;28;19912;-74
2022/12/10 13:23:10;;;;;;;;;;;16.20;99.90;;;;;;5080772;28;19927;-75
2022/12/10 13:25:41;;;;;;;;;;;16.10;99.90;;;;;;5078014;28;19916;-75
2022/12/10 13:28:21;;;;;;;;;;;16.00;99.90;;;;;;5093598;28;20355;-75
2022/12/10 13:31:06;;;;;;;;;;;16.00;99.90;;;;;;5080756;28;20359;-75
2022/12/10 13:33:51;;;;;;;;;;;16.00;99.90;;;;;;5074918;28;20859;-74
2022/12/10 13:36:28;;;;;;;;;;;15.90;99.90;;;;;;5087354;28;20441;-74
2022/12/10 13:39:17;;;;;;;;;;;15.90;99.90;;;;;;5091860;28;20281;-76
2022/12/10 13:44:49;;;;;;;;;;;15.90;99.90;;;;;;5088987;28;19969;-76
2022/12/10 13:47:26;;;;;;;;;;;15.80;99.90;;;;;;5091904;28;19912;-75
2022/12/10 13:49:54;;;;;;;;;;;15.70;99.90;;;;;;5090387;28;19912;-75
2022/12/10 13:52:33;;;;;;;;;;;15.70;99.90;;;;;;5089971;28;19912;-77
2022/12/10 13:55:09;;;;;;;;;;;15.70;99.90;;;;;;5091716;28;20442;-74
2022/12/10 13:57:49;;;;;;;;;;;15.70;99.90;;;;;;5080653;28;19921;-73
2022/12/10 14:00:16;;;;;;;;;;;15.60;99.90;;;;;;5076787;28;20374;-75
2022/12/10 14:03:01;;;;;;;;;;;15.60;99.90;;;;;;5091987;28;19920;-76
2022/12/10 14:05:37;;;;;;;;;;;15.60;99.90;;;;;;5085535;28;19916;-74
2022/12/10 14:08:04;;;;;;;;;;;15.50;99.90;;;;;;5077962;28;19937;-76
2022/12/10 14:10:35;;;;;;;;;;;15.50;99.90;;;;;;5088527;28;19985;-76
2022/12/10 14:13:05;;;;;;;;;;;15.50;99.90;;;;;;5090029;28;19913;-77
2022/12/10 14:15:35;;;;;;;;;;;15.60;99.90;;;;;;5081158;28;20011;-76
2022/12/10 14:18:20;;;;;;;;;;;15.60;99.90;;;;;;5085004;28;19916;-77
2022/12/10 14:20:48;;;;;;;;;;;15.60;99.90;;;;;;5075337;28;19923;-76
2022/12/10 14:23:35;;;;;;;;;;;15.60;99.90;;;;;;5091023;28;20531;-77
2022/12/10 14:26:05;;;;;;;;;;;15.50;99.90;;;;;;5079769;28;19927;-77
2022/12/10 14:28:33;;;;;;;;;;;15.50;99.90;;;;;;5092394;28;19916;-75
2022/12/10 14:31:00;;;;;;;;;;;15.40;99.90;;;;;;5072666;28;19927;-74
2022/12/10 14:33:27;;;;;;;;;;;15.30;99.90;;;;;;5069267;28;19912;-74
2022/12/10 14:35:53;;;;;;;;;;;15.30;99.90;;;;;;5066299;28;19990;-72
2022/12/10 14:38:22;;;;;;;;;;;15.30;99.90;;;;;;5065154;28;19978;-79
2022/12/10 14:40:49;;;;;;;;;;;15.20;99.90;;;;;;5066920;28;20256;-78
2022/12/10 14:43:20;;;;;;;;;;;15.20;99.90;;;;;;5064945;28;19937;-76